createdAt,value
2019-04-09T00:01:38.856Z,10.72
2019-04-09T00:04:09.061Z,10.69
2019-04-09T00:06:39.328Z,10.72
2019-04-09T00:09:08.220Z,10.68
2019-04-09T00:11:38.306Z,10.78
2019-04-09T00:14:07.184Z,10.76
2019-04-09T00:16:35.709Z,10.78
2019-04-09T00:19:04.778Z,10.82
2019-04-09T00:21:33.473Z,10.83
2019-04-09T00:24:02.916Z,10.87
2019-04-09T00:26:44.111Z,10.86
2019-04-09T00:29:04.454Z,10.81
2019-04-09T00:31:33.373Z,10.81
2019-04-09T00:34:02.807Z,10.65
2019-04-09T00:36:31.707Z,10.74
2019-04-09T00:39:00.066Z,10.85
2019-04-09T00:41:30.339Z,10.84
2019-04-09T00:43:59.575Z,10.83
2019-04-09T00:46:30.237Z,10.86
2019-04-09T00:48:58.957Z,10.80
2019-04-09T00:51:27.421Z,10.84
2019-04-09T00:53:56.625Z,10.81
2019-04-09T00:56:25.413Z,10.80
2019-04-09T00:58:53.898Z,10.87
2019-04-09T01:01:24.023Z,10.89
2019-04-09T01:03:52.410Z,10.84
2019-04-09T01:06:20.982Z,10.87
2019-04-09T01:08:49.339Z,10.87
2019-04-09T01:11:17.866Z,10.92
2019-04-09T01:13:46.887Z,10.94
2019-04-09T01:16:15.764Z,10.94
2019-04-09T01:18:44.156Z,10.95
2019-04-09T01:21:12.619Z,10.98
2019-04-09T01:23:40.979Z,10.92
2019-04-09T01:26:16.787Z,10.91
2019-04-09T01:28:46.899Z,10.93
2019-04-09T01:31:19.953Z,10.92
2019-04-09T01:33:52.420Z,10.95
2019-04-09T01:36:28.459Z,10.96
2019-04-09T01:39:11.711Z,10.93
2019-04-09T01:41:41.921Z,10.91
2019-04-09T01:44:18.059Z,10.92
2019-04-09T01:47:00.361Z,10.88
2019-04-09T01:49:30.363Z,10.87
2019-04-09T01:52:00.393Z,10.86
2019-04-09T01:54:36.186Z,10.87
2019-04-09T01:57:29.424Z,10.91
2019-04-09T02:00:03.325Z,10.95
2019-04-09T02:02:48.493Z,10.97
2019-04-09T02:05:24.310Z,10.90
2019-04-09T02:08:11.390Z,10.89
2019-04-09T02:10:44.307Z,10.88
2019-04-09T02:13:30.536Z,10.90
2019-04-09T02:16:06.433Z,10.86
2019-04-09T02:18:39.122Z,10.78
2019-04-09T02:21:18.402Z,10.82
2019-04-09T02:23:54.406Z,10.77
2019-04-09T02:26:30.767Z,10.77
2019-04-09T02:29:03.254Z,10.72
2019-04-09T02:31:36.844Z,10.72
2019-04-09T02:34:07.336Z,10.76
2019-04-09T02:36:40.610Z,10.70
2019-04-09T02:39:24.901Z,10.58
2019-04-09T02:42:13.077Z,10.54
2019-04-09T02:45:01.184Z,10.56
2019-04-09T02:47:34.040Z,10.40
2019-04-09T02:50:20.543Z,10.35
2019-04-09T02:52:54.175Z,10.44
2019-04-09T02:55:24.944Z,10.47
2019-04-09T02:58:07.095Z,10.52
2019-04-09T03:00:48.887Z,10.63
2019-04-09T03:03:35.495Z,10.64
2019-04-09T03:06:14.345Z,10.70
2019-04-09T03:08:44.373Z,10.68
2019-04-09T03:11:31.807Z,10.69
2019-04-09T03:14:18.127Z,10.66
2019-04-09T03:16:57.075Z,10.60
2019-04-09T03:19:45.623Z,10.61
2019-04-09T03:22:21.471Z,10.57
2019-04-09T03:24:51.686Z,10.51
2019-04-09T03:27:28.054Z,10.46
2019-04-09T03:29:58.839Z,10.44
2019-04-09T03:32:42.421Z,10.42
2019-04-09T03:35:29.654Z,10.52
2019-04-09T03:38:15.783Z,10.49
2019-04-09T03:40:45.817Z,10.31
2019-04-09T03:43:16.160Z,10.39
2019-04-09T03:45:47.141Z,10.45
2019-04-09T03:48:28.970Z,10.52
2019-04-09T03:51:00.063Z,10.39
2019-04-09T03:53:30.648Z,10.40
2019-04-09T03:56:13.833Z,10.50
2019-04-09T03:58:46.739Z,10.54
2019-04-09T04:01:32.730Z,10.51
2019-04-09T04:04:19.448Z,10.58
2019-04-09T04:06:55.404Z,10.60
2019-04-09T04:09:25.439Z,10.63
2019-04-09T04:11:56.419Z,10.71
2019-04-09T04:14:41.584Z,10.67
2019-04-09T04:17:15.523Z,10.64
2019-04-09T04:19:46.141Z,10.66
2019-04-09T04:22:19.349Z,10.64
2019-04-09T04:24:49.737Z,10.61
2019-04-09T04:27:31.869Z,10.50
2019-04-09T04:30:14.837Z,10.57
2019-04-09T04:32:44.887Z,10.67
2019-04-09T04:35:26.940Z,10.58
2019-04-09T04:38:00.255Z,10.56
2019-04-09T04:40:33.500Z,10.59
2019-04-09T04:43:19.211Z,10.64
2019-04-09T04:46:05.339Z,10.67
2019-04-09T04:48:48.405Z,10.66
2019-04-09T04:51:24.432Z,10.67
2019-04-09T04:54:11.301Z,10.69
2019-04-09T04:56:44.514Z,10.64
2019-04-09T04:59:24.265Z,10.70
2019-04-09T05:02:03.370Z,10.69
2019-04-09T05:04:50.331Z,10.68
2019-04-09T05:07:40.775Z,10.74
2019-04-09T05:10:17.119Z,10.78
2019-04-09T05:13:04.049Z,10.81
2019-04-09T05:15:35.379Z,10.77
2019-04-09T05:18:09.234Z,10.75
2019-04-09T05:20:39.639Z,10.76
2019-04-09T05:23:25.827Z,10.84
2019-04-09T05:26:11.691Z,10.81
2019-04-09T05:28:50.714Z,10.81
2019-04-09T05:31:30.753Z,10.80
2019-04-09T05:34:03.317Z,10.82
2019-04-09T05:36:45.635Z,10.76
2019-04-09T05:39:15.807Z,10.75
2019-04-09T05:41:58.411Z,10.64
2019-04-09T05:44:31.414Z,10.67
2019-04-09T05:47:01.920Z,10.69
2019-04-09T05:49:48.616Z,10.68
2019-04-09T05:52:22.753Z,10.78
2019-04-09T05:55:09.221Z,10.85
2019-04-09T05:57:46.573Z,10.94
2019-04-09T06:00:21.522Z,10.90
2019-04-09T06:02:56.925Z,10.94
2019-04-09T06:05:26.780Z,10.83
2019-04-09T06:08:02.276Z,10.85
2019-04-09T06:10:30.697Z,10.95
2019-04-09T06:12:59.093Z,10.95
2019-04-09T06:15:27.517Z,11.01
2019-04-09T06:17:55.905Z,11.02
2019-04-09T06:20:24.255Z,10.99
2019-04-09T06:22:52.648Z,11.02
2019-04-09T06:25:22.793Z,11.01
2019-04-09T06:27:51.177Z,11.07
2019-04-09T06:30:19.834Z,11.06
2019-04-09T06:33:02.037Z,11.13
2019-04-09T06:35:38.254Z,11.13
2019-04-09T06:38:14.670Z,11.09
2019-04-09T06:40:50.783Z,11.10
2019-04-09T06:43:23.548Z,11.15
2019-04-09T06:46:11.644Z,11.19
2019-04-09T06:49:00.212Z,11.26
2019-04-09T06:51:35.725Z,11.21
2019-04-09T06:54:15.960Z,11.27
2019-04-09T06:56:49.708Z,11.36
2019-04-09T06:59:29.603Z,11.36
2019-04-09T07:02:07.705Z,11.39
2019-04-09T07:04:40.398Z,11.32
2019-04-09T07:07:28.514Z,11.28
2019-04-09T07:10:14.348Z,11.30
2019-04-09T07:12:45.036Z,11.36
2019-04-09T07:15:21.570Z,11.36
2019-04-09T07:17:51.604Z,11.41
2019-04-09T07:20:33.661Z,11.44
2019-04-09T07:23:06.630Z,11.41
2019-04-09T07:25:54.272Z,11.33
2019-04-09T07:28:36.418Z,11.37
2019-04-09T07:31:08.939Z,11.45
2019-04-09T07:33:39.791Z,11.48
2019-04-09T07:36:13.446Z,11.53
2019-04-09T07:38:48.697Z,11.52
2019-04-09T07:41:37.865Z,11.55
2019-04-09T07:44:23.199Z,11.59
2019-04-09T07:46:59.120Z,11.64
2019-04-09T07:49:45.165Z,11.64
2019-04-09T07:52:17.919Z,11.74
2019-04-09T07:54:50.707Z,11.74
2019-04-09T07:57:21.913Z,11.81
2019-04-09T08:00:12.161Z,11.95
2019-04-09T08:02:49.640Z,11.95
2019-04-09T08:05:32.220Z,11.97
2019-04-09T08:08:19.526Z,11.95
2019-04-09T08:11:07.222Z,11.90
2019-04-09T08:13:43.627Z,11.90
2019-04-09T08:16:23.275Z,11.91
2019-04-09T08:19:03.960Z,11.87
2019-04-09T08:21:47.860Z,11.99
2019-04-09T08:24:22.756Z,12.01
2019-04-09T08:27:08.163Z,12.00
2019-04-09T08:29:49.573Z,12.02
2019-04-09T08:32:22.911Z,11.92
2019-04-09T08:34:59.561Z,11.94
2019-04-09T08:37:30.551Z,11.88
2019-04-09T08:40:01.728Z,11.95
2019-04-09T08:42:48.749Z,11.95
2019-04-09T08:45:25.885Z,11.81
2019-04-09T08:47:56.944Z,11.82
2019-04-09T08:50:43.026Z,11.88
2019-04-09T08:53:18.737Z,11.81
2019-04-09T08:55:57.529Z,11.92
2019-04-09T08:58:35.572Z,11.97
2019-04-09T09:01:45.205Z,11.98
2019-04-09T09:03:52.668Z,12.05
2019-04-09T09:06:33.576Z,11.97
2019-04-09T09:09:22.011Z,12.06
2019-04-09T09:12:01.657Z,12.10
2019-04-09T09:14:32.233Z,12.04
2019-04-09T09:17:06.047Z,12.16
2019-04-09T09:19:44.286Z,12.15
2019-04-09T09:22:31.655Z,12.20
2019-04-09T09:25:06.036Z,12.17
2019-04-09T09:27:54.306Z,12.23
2019-04-09T09:30:52.451Z,12.31
2019-04-09T09:33:10.730Z,12.37
2019-04-09T09:35:42.231Z,12.33
2019-04-09T09:38:28.720Z,12.33
2019-04-09T09:41:12.383Z,12.39
2019-04-09T09:43:52.606Z,12.55
2019-04-09T09:46:22.698Z,12.52
2019-04-09T09:49:02.100Z,12.51
2019-04-09T09:51:33.528Z,12.57
2019-04-09T09:54:07.808Z,12.68
2019-04-09T09:56:38.979Z,12.74
2019-04-09T09:59:15.404Z,12.88
2019-04-09T10:02:06.367Z,12.90
2019-04-09T10:04:51.122Z,12.90
2019-04-09T10:07:38.720Z,12.87
2019-04-09T10:09:57.481Z,12.76
2019-04-09T10:12:38.034Z,12.80
2019-04-09T10:15:07.104Z,12.88
2019-04-09T10:17:53.798Z,12.93
2019-04-09T10:20:26.558Z,12.96
2019-04-09T10:23:15.664Z,13.04
2019-04-09T10:25:48.786Z,13.07
2019-04-09T10:28:24.069Z,13.03
2019-04-09T10:30:55.769Z,13.19
2019-04-09T10:33:32.306Z,13.37
2019-04-09T10:36:21.426Z,13.56
2019-04-09T10:39:09.683Z,13.49
2019-04-09T10:41:46.392Z,13.45
2019-04-09T10:44:17.867Z,13.47
2019-04-09T10:46:57.649Z,13.30
2019-04-09T10:49:29.276Z,13.39
2019-04-09T10:52:13.179Z,13.38
2019-04-09T10:54:46.556Z,13.43
2019-04-09T10:57:15.938Z,13.47
2019-04-09T10:59:46.928Z,13.43
2019-04-09T11:02:25.314Z,13.38
2019-04-09T11:05:04.211Z,13.41
2019-04-09T11:07:45.465Z,13.38
2019-04-09T11:10:26.974Z,13.36
2019-04-09T11:13:04.526Z,13.35
2019-04-09T11:15:35.511Z,13.37
2019-04-09T11:18:13.813Z,13.49
2019-04-09T11:20:44.051Z,13.48
2019-04-09T11:23:31.151Z,13.50
2019-04-09T11:26:18.131Z,13.48
2019-04-09T11:29:04.677Z,13.54
2019-04-09T11:31:59.521Z,13.34
2019-04-09T11:34:27.853Z,13.33
2019-04-09T11:37:01.298Z,13.34
2019-04-09T11:39:36.465Z,13.25
2019-04-09T11:42:07.507Z,13.23
2019-04-09T11:44:43.272Z,13.30
2019-04-09T11:47:16.974Z,13.25
2019-04-09T11:49:56.091Z,13.23
2019-04-09T11:52:42.647Z,13.28
2019-04-09T11:55:13.467Z,13.29
2019-04-09T11:57:53.033Z,13.24
2019-04-09T12:00:39.705Z,13.27
2019-04-09T12:03:10.617Z,13.28
2019-04-09T12:05:59.053Z,13.30
2019-04-09T12:08:29.085Z,13.28
2019-04-09T12:11:05.143Z,13.29
2019-04-09T12:13:53.020Z,13.27
2019-04-09T12:16:25.749Z,13.28
2019-04-09T12:18:56.035Z,13.17
2019-04-09T12:21:43.632Z,13.07
2019-04-09T12:24:15.203Z,13.08
2019-04-09T12:26:46.529Z,13.05
2019-04-09T12:29:24.637Z,13.04
2019-04-09T12:31:54.437Z,13.02
2019-04-09T12:34:30.633Z,12.96
2019-04-09T12:37:04.941Z,12.96
2019-04-09T12:39:38.231Z,12.93
2019-04-09T12:42:12.204Z,13.02
2019-04-09T12:45:00.859Z,12.90
2019-04-09T12:47:40.126Z,12.81
2019-04-09T12:50:22.433Z,12.79
2019-04-09T12:52:52.539Z,12.72
2019-04-09T12:55:31.334Z,12.64
2019-04-09T12:58:01.919Z,12.57
2019-04-09T13:00:44.432Z,12.64
2019-04-09T13:03:23.771Z,12.56
2019-04-09T13:05:54.719Z,12.33
2019-04-09T13:08:34.030Z,12.26
2019-04-09T13:11:20.371Z,12.44
2019-04-09T13:13:53.220Z,12.46
2019-04-09T13:16:23.272Z,12.67
2019-04-09T13:21:43.477Z,12.68
2019-04-09T13:24:13.524Z,12.63
2019-04-09T13:26:56.307Z,12.64
2019-04-09T13:29:45.263Z,12.66
2019-04-09T13:32:15.733Z,12.50
2019-04-09T13:35:01.931Z,12.50
2019-04-09T13:37:37.521Z,12.75
2019-04-09T13:40:09.217Z,12.79
2019-04-09T13:42:39.233Z,12.65
2019-04-09T13:45:11.551Z,12.82
2019-04-09T13:47:50.751Z,12.77
2019-04-09T13:50:21.058Z,12.78
2019-04-09T13:52:58.396Z,12.74
2019-04-09T13:55:26.796Z,12.76
2019-04-09T13:57:56.242Z,12.84
2019-04-09T14:00:25.325Z,12.93
2019-04-09T14:03:11.414Z,13.04
2019-04-09T14:05:28.650Z,13.01
2019-04-09T14:07:57.796Z,13.13
2019-04-09T14:10:27.017Z,12.96
2019-04-09T14:12:57.547Z,13.07
2019-04-09T14:15:25.960Z,13.08
2019-04-09T14:17:54.827Z,13.06
2019-04-09T14:20:23.398Z,12.97
2019-04-09T14:22:51.763Z,12.89
2019-04-09T14:25:21.220Z,12.84
2019-04-09T14:27:49.662Z,12.80
2019-04-09T14:30:18.057Z,12.73
2019-04-09T14:32:46.410Z,12.76
2019-04-09T14:35:15.126Z,12.63
2019-04-09T14:37:43.878Z,12.50
2019-04-09T14:40:17.487Z,12.50
2019-04-09T14:42:46.614Z,12.43
2019-04-09T14:45:15.174Z,12.36
2019-04-09T14:47:44.249Z,12.32
2019-04-09T14:50:13.649Z,12.23
2019-04-09T14:52:49.966Z,12.23
2019-04-09T14:55:13.002Z,12.17
2019-04-09T14:57:41.432Z,12.21
2019-04-09T15:00:16.307Z,12.16
2019-04-09T15:02:44.856Z,12.13
2019-04-09T15:05:14.176Z,12.15
2019-04-09T15:07:42.519Z,12.12
2019-04-09T15:10:11.300Z,12.16
2019-04-09T15:12:39.742Z,12.27
2019-04-09T15:15:11.463Z,12.38
2019-04-09T15:17:40.022Z,12.21
2019-04-09T15:20:08.719Z,12.36
2019-04-09T15:22:37.111Z,12.38
2019-04-09T15:25:07.130Z,12.52
2019-04-09T15:27:35.812Z,12.44
2019-04-09T15:30:06.288Z,12.41
2019-04-09T15:32:35.309Z,12.32
2019-04-09T15:35:05.707Z,12.37
2019-04-09T15:37:35.284Z,12.46
2019-04-09T15:40:06.616Z,12.31
2019-04-09T15:42:35.098Z,12.26
2019-04-09T15:45:04.618Z,12.17
2019-04-09T15:47:33.705Z,12.20
2019-04-09T15:50:04.968Z,12.22
2019-04-09T15:52:33.225Z,12.24
2019-04-09T15:55:01.706Z,12.20
2019-04-09T15:57:30.092Z,12.05
2019-04-09T15:59:59.501Z,12.21
2019-04-09T16:02:27.995Z,12.24
2019-04-09T16:04:56.729Z,12.28
2019-04-09T16:07:26.230Z,12.24
2019-04-09T16:09:54.662Z,12.23
2019-04-09T16:12:23.059Z,12.09
2019-04-09T16:14:52.186Z,12.13
2019-04-09T16:17:21.526Z,12.16
2019-04-09T16:19:51.561Z,12.23
2019-04-09T16:22:20.162Z,12.28
2019-04-09T16:24:48.903Z,12.30
2019-04-09T16:27:17.358Z,12.20
2019-04-09T16:29:45.718Z,12.25
2019-04-09T16:32:15.267Z,12.26
2019-04-09T16:34:44.123Z,12.16
2019-04-09T16:37:16.243Z,12.14
2019-04-09T16:39:42.591Z,11.94
2019-04-09T16:42:11.026Z,11.89
2019-04-09T16:44:51.679Z,11.94
2019-04-09T16:47:11.552Z,12.00
2019-04-09T16:49:44.769Z,12.04
2019-04-09T16:52:13.044Z,11.97
2019-04-09T16:54:43.043Z,12.00
2019-04-09T16:57:12.900Z,11.99
2019-04-09T16:59:42.061Z,11.95
2019-04-09T17:02:11.124Z,11.91
2019-04-09T17:04:39.590Z,11.96
2019-04-09T17:07:09.232Z,11.92
2019-04-09T17:09:39.815Z,11.93
2019-04-09T17:12:10.473Z,11.93
2019-04-09T17:14:38.807Z,11.89
2019-04-09T17:17:07.656Z,11.91
2019-04-09T17:19:36.256Z,11.86
2019-04-09T17:22:04.968Z,11.86
2019-04-09T17:24:35.309Z,11.84
2019-04-09T17:27:07.445Z,11.83
2019-04-09T17:29:37.557Z,11.80
2019-04-09T17:32:05.913Z,11.80
2019-04-09T17:34:36.080Z,11.88
2019-04-09T17:37:05.357Z,11.86
2019-04-09T17:39:35.359Z,11.90
2019-04-09T17:42:08.849Z,11.87
2019-04-09T17:44:35.425Z,11.84
2019-04-09T17:47:04.190Z,11.76
2019-04-09T17:49:37.485Z,11.75
2019-04-09T17:52:06.610Z,11.69
2019-04-09T17:54:36.579Z,11.68
2019-04-09T17:57:05.204Z,11.61
2019-04-09T17:59:34.088Z,11.66
2019-04-09T18:02:02.648Z,11.66
2019-04-09T18:04:42.622Z,11.65
2019-04-09T18:07:02.004Z,11.67
2019-04-09T18:09:31.622Z,11.62
2019-04-09T18:12:00.529Z,11.61
2019-04-09T18:14:29.754Z,11.63
2019-04-09T18:17:03.408Z,11.62
2019-04-09T18:19:34.270Z,11.64
2019-04-09T18:22:03.173Z,11.64
2019-04-09T18:24:32.596Z,11.59
2019-04-09T18:27:03.440Z,11.60
2019-04-09T18:29:32.155Z,11.51
2019-04-09T18:32:01.179Z,11.55
2019-04-09T18:34:29.570Z,11.55
2019-04-09T18:36:57.933Z,11.49
2019-04-09T18:39:26.287Z,11.35
2019-04-09T18:41:54.780Z,11.42
2019-04-09T18:44:23.110Z,11.43
2019-04-09T18:46:51.633Z,11.22
2019-04-09T18:49:19.932Z,11.19
2019-04-09T18:51:49.042Z,11.37
2019-04-09T18:54:17.825Z,11.30
2019-04-09T18:56:46.233Z,11.27
2019-04-09T18:59:15.629Z,11.13
2019-04-09T19:01:44.126Z,11.10
2019-04-09T19:04:17.032Z,10.96
2019-04-09T19:06:43.056Z,11.16
2019-04-09T19:09:14.272Z,11.17
2019-04-09T19:11:43.634Z,11.09
2019-04-09T19:14:12.142Z,11.07
2019-04-09T19:16:40.606Z,11.27
2019-04-09T19:19:09.967Z,11.27
2019-04-09T19:21:39.105Z,11.20
2019-04-09T19:24:08.743Z,11.24
2019-04-09T19:26:38.385Z,11.29
2019-04-09T19:29:08.626Z,11.19
2019-04-09T19:31:37.728Z,11.30
2019-04-09T19:34:06.196Z,11.25
2019-04-09T19:36:36.637Z,11.23
2019-04-09T19:39:07.739Z,11.27
2019-04-09T19:41:36.342Z,11.22
2019-04-09T19:44:05.217Z,11.21
2019-04-09T19:46:33.675Z,11.28
2019-04-09T19:49:02.450Z,11.32
2019-04-09T19:51:31.413Z,11.34
2019-04-09T19:54:00.269Z,11.25
2019-04-09T19:56:28.808Z,11.32
2019-04-09T19:58:57.439Z,11.31
2019-04-09T20:01:26.142Z,11.38
2019-04-09T20:03:54.879Z,11.36
2019-04-09T20:06:23.717Z,11.36
2019-04-09T20:08:52.225Z,11.27
2019-04-09T20:11:21.329Z,11.23
2019-04-09T20:13:50.377Z,11.19
2019-04-09T20:16:19.151Z,11.20
2019-04-09T20:18:48.190Z,11.24
2019-04-09T20:21:18.745Z,11.35
2019-04-09T20:23:47.175Z,11.38
2019-04-09T20:26:15.871Z,11.37
2019-04-09T20:28:44.622Z,11.37
2019-04-09T20:31:13.110Z,11.37
2019-04-09T20:33:43.508Z,11.35
2019-04-09T20:36:11.972Z,11.31
2019-04-09T20:38:40.908Z,11.27
2019-04-09T20:41:09.365Z,11.37
2019-04-09T20:43:38.571Z,11.36
2019-04-09T20:46:07.233Z,11.36
2019-04-09T20:48:35.703Z,11.42
2019-04-09T20:51:04.250Z,11.21
2019-04-09T20:53:33.915Z,11.25
2019-04-09T20:56:02.704Z,11.33
2019-04-09T20:58:31.559Z,11.33
2019-04-09T21:01:18.715Z,11.30
2019-04-09T21:03:58.792Z,11.36
2019-04-09T21:06:23.630Z,11.31
2019-04-09T21:08:53.706Z,11.33
2019-04-09T21:11:24.495Z,11.23
2019-04-09T21:13:53.745Z,11.22
2019-04-09T21:16:22.769Z,11.30
2019-04-09T21:18:51.947Z,11.24
2019-04-09T21:21:20.942Z,11.32
2019-04-09T21:23:49.392Z,11.36
2019-04-09T21:26:18.228Z,11.36
2019-04-09T21:28:47.858Z,11.38
2019-04-09T21:31:18.151Z,11.38
2019-04-09T21:33:47.056Z,11.31
2019-04-09T21:36:17.481Z,11.35
2019-04-09T21:38:46.518Z,11.30
2019-04-09T21:41:16.443Z,11.32
2019-04-09T21:43:45.025Z,11.28
2019-04-09T21:46:13.459Z,11.19
2019-04-09T21:48:41.849Z,11.19
2019-04-09T21:51:11.144Z,11.22
2019-04-09T21:53:39.680Z,11.33
2019-04-09T21:56:08.924Z,11.32
2019-04-09T21:58:37.520Z,11.35
2019-04-09T22:01:09.325Z,11.36
2019-04-09T22:03:38.801Z,11.23
2019-04-09T22:06:19.378Z,11.28
2019-04-09T22:08:38.325Z,11.32
2019-04-09T22:11:06.713Z,11.31
2019-04-09T22:13:35.179Z,11.27
2019-04-09T22:16:03.675Z,11.32
2019-04-09T22:18:32.070Z,11.24
2019-04-09T22:21:01.570Z,11.36
2019-04-09T22:23:41.422Z,11.29
2019-04-09T22:26:01.008Z,11.31
2019-04-09T22:28:29.460Z,11.36
2019-04-09T22:30:57.929Z,11.24
2019-04-09T22:33:26.446Z,11.21
2019-04-09T22:35:54.918Z,11.26
2019-04-09T22:38:23.308Z,11.30
2019-04-09T22:40:51.674Z,11.32
2019-04-09T22:43:20.478Z,11.31
2019-04-09T22:45:49.460Z,11.35
2019-04-09T22:48:17.981Z,11.26
2019-04-09T22:50:46.400Z,11.27
2019-04-09T22:53:14.767Z,11.23
2019-04-09T22:55:43.170Z,11.22
2019-04-09T22:58:11.510Z,11.28
2019-04-09T23:00:44.228Z,11.31
2019-04-09T23:03:14.219Z,11.29
2019-04-09T23:06:00.322Z,11.25
2019-04-09T23:08:39.575Z,11.24
2019-04-09T23:11:12.698Z,11.19
2019-04-09T23:13:41.883Z,11.24
2019-04-09T23:16:10.862Z,11.23
2019-04-09T23:18:39.402Z,11.26
2019-04-09T23:21:07.783Z,11.29
2019-04-09T23:23:37.358Z,11.35
2019-04-09T23:26:06.021Z,11.27
2019-04-09T23:28:35.089Z,11.24
2019-04-09T23:31:04.215Z,11.20
2019-04-09T23:33:32.693Z,11.20
2019-04-09T23:36:01.071Z,11.27
2019-04-09T23:38:29.545Z,11.24
2019-04-09T23:40:57.902Z,11.24
2019-04-09T23:43:26.267Z,11.30
2019-04-09T23:45:54.887Z,11.31
2019-04-09T23:48:24.265Z,11.33
2019-04-09T23:50:52.751Z,11.18
2019-04-09T23:53:21.191Z,11.22
2019-04-09T23:55:49.639Z,11.07
2019-04-09T23:58:18.779Z,11.15
